Time;durP1;ratioP1;P1;durP2;ratioP2;P2;SDS_P1;SDS_P2;PMS_P1;PMS_P2;Temp;Humidity;BMP_temperature;BMP_pressure;BME280_temperature;BME280_humidity;BME280_pressure;Samples;Min_cycle;Max_cycle;Signal;HPM_P1;HPM_P2
2023/01/16 00:00:01;;;;;;;3.40;2.77;;;;;;;0.94;100.00;99649.72;5031346;28;20359;-74
2023/01/16 00:02:27;;;;;;;3.87;2.60;;;;;;;0.85;100.00;99627.72;5031535;28;20505;-72
2023/01/16 00:04:57;;;;;;;3.97;3.23;;;;;;;0.87;100.00;99635.47;5014002;28;20373;-75
2023/01/16 00:07:23;;;;;;;3.77;3.20;;;;;;;0.90;100.00;99635.22;5032413;28;20032;-72
2023/01/16 00:09:48;;;;;;;2.87;2.63;;;;;;;0.88;100.00;99621.41;5037263;28;20253;-74
2023/01/16 00:12:14;;;;;;;3.07;2.77;;;;;;;0.97;100.00;99641.59;5018941;28;20033;-73
2023/01/16 00:14:42;;;;;;;3.25;2.70;;;;;;;0.96;100.00;99639.94;5042594;28;20436;-73
2023/01/16 00:17:08;;;;;;;3.47;3.17;;;;;;;0.99;100.00;99654.56;5049737;28;20039;-74
2023/01/16 00:19:34;;;;;;;3.73;3.03;;;;;;;0.92;100.00;99638.53;5045952;28;20029;-72
2023/01/16 00:21:59;;;;;;;3.80;2.57;;;;;;;0.96;100.00;99633.88;5056173;28;20089;-72
2023/01/16 00:24:25;;;;;;;3.90;2.80;;;;;;;1.03;100.00;99642.88;5056645;28;20252;-73
2023/01/16 00:26:51;;;;;;;2.80;2.50;;;;;;;1.06;100.00;99645.22;5022982;28;20027;-73
2023/01/16 00:29:16;;;;;;;2.80;2.60;;;;;;;1.02;100.00;99643.81;5035421;28;20032;-75
2023/01/16 00:31:42;;;;;;;3.60;2.30;;;;;;;1.00;100.00;99630.84;5035202;28;20021;-72
2023/01/16 00:34:07;;;;;;;3.13;2.77;;;;;;;1.08;100.00;99659.88;5035274;28;20026;-74
2023/01/16 00:36:33;;;;;;;2.90;2.60;;;;;;;1.00;100.00;99619.53;5034949;28;20025;-72
2023/01/16 00:38:58;;;;;;;2.77;2.53;;;;;;;1.14;100.00;99643.59;5034925;28;20033;-73
2023/01/16 00:41:24;;;;;;;2.63;2.43;;;;;;;1.15;100.00;99649.69;5034650;28;20017;-72
2023/01/16 00:43:50;;;;;;;3.07;2.87;;;;;;;1.13;100.00;99631.47;5034406;28;20052;-72
2023/01/16 00:46:15;;;;;;;2.93;2.73;;;;;;;1.03;100.00;99627.97;5034240;28;20033;-72
2023/01/16 00:48:41;;;;;;;2.97;2.60;;;;;;;1.12;100.00;99649.94;5034435;28;20033;-74
2023/01/16 00:51:06;;;;;;;2.63;2.30;;;;;;;1.15;100.00;99644.44;5035967;28;20029;-74
2023/01/16 00:53:32;;;;;;;2.90;2.60;;;;;;;1.17;100.00;99642.53;5034482;28;20035;-73
2023/01/16 00:55:57;;;;;;;2.90;2.57;;;;;;;1.27;100.00;99645.22;5034445;28;20025;-74
2023/01/16 00:58:23;;;;;;;3.33;3.10;;;;;;;0.99;100.00;99605.59;5034256;28;20035;-74
2023/01/16 01:00:49;;;;;;;3.10;2.70;;;;;;;1.17;100.00;99635.50;5034057;28;20022;-74
2023/01/16 01:03:15;;;;;;;2.30;2.10;;;;;;;1.25;100.00;99629.59;5034480;28;20025;-75
2023/01/16 01:05:42;;;;;;;2.70;2.50;;;;;;;1.24;100.00;99633.19;5034832;28;20276;-73
2023/01/16 01:08:08;;;;;;;2.70;2.20;;;;;;;1.14;100.00;99621.81;5034248;28;20038;-73
2023/01/16 01:10:37;;;;;;;2.30;2.10;;;;;;;1.01;100.00;99615.94;5034260;28;20256;-73
2023/01/16 01:13:03;;;;;;;2.30;2.10;;;;;;;1.01;100.00;99629.88;5033849;28;20021;-75
2023/01/16 01:15:28;;;;;;;3.50;2.30;;;;;;;1.07;100.00;99625.91;5034084;28;20287;-74
2023/01/16 01:17:54;;;;;;;3.60;3.30;;;;;;;1.05;100.00;99630.44;5016512;28;20037;-71
2023/01/16 01:20:19;;;;;;;2.60;2.13;;;;;;;0.98;100.00;99618.84;5034322;28;20025;-73
2023/01/16 01:22:46;;;;;;;3.27;2.60;;;;;;;0.97;100.00;99630.28;5034081;28;20117;-73
2023/01/16 01:25:12;;;;;;;2.47;2.27;;;;;;;0.88;100.00;99622.22;5034383;28;20377;-72
2023/01/16 01:27:37;;;;;;;2.50;2.30;;;;;;;0.84;100.00;99619.97;5017285;28;20807;-71
2023/01/16 01:30:03;;;;;;;3.30;2.30;;;;;;;0.82;100.00;99617.47;5035166;28;20292;-73
2023/01/16 01:32:29;;;;;;;2.73;2.50;;;;;;;0.79;100.00;99620.38;5034686;28;20461;-73
2023/01/16 01:34:55;;;;;;;2.53;2.30;;;;;;;0.78;100.00;99620.50;5034146;28;20260;-72
2023/01/16 01:37:20;;;;;;;2.67;2.40;;;;;;;0.80;100.00;99618.56;5035201;28;20124;-73
2023/01/16 01:39:46;;;;;;;2.30;2.10;;;;;;;0.79;100.00;99620.38;5034638;28;20028;-74
2023/01/16 01:45:05;;;;;;;3.23;2.60;;;;;;;0.87;100.00;99620.56;5018138;28;20021;-74
2023/01/16 01:47:39;;;;;;;2.53;2.33;;;;;;;0.91;100.00;99627.22;5017890;28;20256;-74
2023/01/16 01:50:17;;;;;;;2.03;1.87;;;;;;;0.97;100.00;99635.53;5017235;28;20292;-74
2023/01/16 01:52:43;;;;;;;2.40;2.20;;;;;;;1.02;100.00;99639.41;5034606;28;20354;-72
2023/01/16 01:55:13;;;;;;;2.10;1.90;;;;;;;0.91;100.00;99635.09;5033565;28;20521;-73
2023/01/16 01:57:45;;;;;;;2.33;2.03;;;;;;;0.99;100.00;99650.16;5033441;28;20025;-73
2023/01/16 02:00:14;;;;;;;3.10;1.90;;;;;;;0.97;100.00;99636.34;5034031;28;20854;-73
2023/01/16 02:02:44;;;;;;;1.65;1.55;;;;;;;1.00;100.00;99616.91;5033594;28;20336;-75
2023/01/16 02:05:15;;;;;;;2.20;1.60;;;;;;;0.95;100.00;99611.22;5033303;28;20080;-75
2023/01/16 02:07:42;;;;;;;1.73;1.63;;;;;;;0.98;100.00;99626.69;5033554;28;20700;-74
2023/01/16 02:10:26;;;;;;;2.73;1.83;;;;;;;0.97;100.00;99630.28;5040506;28;20287;-72
2023/01/16 02:12:53;;;;;;;3.00;1.90;;;;;;;0.90;100.00;99619.47;5043210;28;20028;-73
2023/01/16 02:15:22;;;;;;;2.33;1.90;;;;;;;0.92;100.00;99602.66;5044259;28;20612;-73
2023/01/16 02:20:56;;;;;;;2.17;1.97;;;;;;;1.02;100.00;99601.88;5033184;28;20264;-73
2023/01/16 02:24:04;;;;;;;2.20;2.00;;;;;;;1.00;100.00;99593.31;5016488;28;20760;-74
2023/01/16 02:26:39;;;;;;;2.17;1.98;;;;;;;1.09;100.00;99603.00;4962594;28;20255;-73
2023/01/16 02:29:34;;;;;;;2.10;1.90;;;;;;;1.09;100.00;99624.00;5015545;28;20421;-72
2023/01/16 02:32:20;;;;;;;2.60;1.80;;;;;;;1.04;100.00;99623.56;5032170;28;20789;-73
2023/01/16 02:34:54;;;;;;;2.00;1.90;;;;;;;1.06;100.00;99611.13;5005039;28;20271;-74
2023/01/16 02:37:43;;;;;;;1.77;1.67;;;;;;;1.07;100.00;99608.38;5039218;28;20759;-74
2023/01/16 02:40:20;;;;;;;2.00;1.80;;;;;;;1.01;100.00;99606.28;5038792;28;20646;-74
2023/01/16 02:42:57;;;;;;;2.10;1.90;;;;;;;1.06;100.00;99600.66;5032663;28;20339;-74
2023/01/16 02:45:33;;;;;;;2.07;1.90;;;;;;;1.08;100.00;99598.72;5035283;28;20264;-74
2023/01/16 02:48:01;;;;;;;2.57;2.07;;;;;;;1.09;100.00;99603.84;5017409;28;20256;-72
2023/01/16 02:50:47;;;;;;;1.70;1.60;;;;;;;1.09;100.00;99601.22;5033970;28;20276;-72
2023/01/16 02:53:26;;;;;;;2.20;2.00;;;;;;;1.15;100.00;99594.63;5032732;28;20030;-75
2023/01/16 02:56:02;;;;;;;2.47;2.27;;;;;;;1.17;100.00;99595.34;5014830;28;20274;-75
2023/01/16 02:58:31;;;;;;;2.27;2.10;;;;;;;1.05;100.00;99570.16;5032356;28;20346;-73
2023/01/16 03:00:58;;;;;;;1.80;1.70;;;;;;;1.19;100.00;99582.94;5032079;28;20271;-74
2023/01/16 03:03:46;;;;;;;2.07;1.87;;;;;;;1.20;100.00;99595.06;4998697;28;20080;-74
2023/01/16 03:06:18;;;;;;;1.87;1.77;;;;;;;1.22;100.00;99593.16;5033684;28;20276;-74
2023/01/16 03:09:10;;;;;;;1.90;1.80;;;;;;;1.20;100.00;99589.84;5032319;28;20264;-74
2023/01/16 03:11:47;;;;;;;2.30;2.10;;;;;;;1.24;100.00;99596.47;5032455;28;20267;-74
2023/01/16 03:14:43;;;;;;;2.17;2.07;;;;;;;1.30;100.00;99587.25;5032187;28;20608;-76
2023/01/16 03:17:36;;;;;;;1.80;1.70;;;;;;;1.32;100.00;99598.44;5009561;28;20284;-74
2023/01/16 03:20:04;;;;;;;1.80;1.70;;;;;;;1.30;100.00;99614.31;5032446;28;20612;-72
2023/01/16 03:22:59;;;;;;;1.95;1.85;;;;;;;1.29;100.00;99599.53;5032112;28;20298;-73
2023/01/16 03:25:32;;;;;;;2.43;2.23;;;;;;;1.27;100.00;99598.81;5032943;28;20034;-74
2023/01/16 03:28:19;;;;;;;1.90;1.80;;;;;;;1.25;100.00;99595.50;5032194;28;20651;-74
2023/01/16 03:30:54;;;;;;;1.90;1.70;;;;;;;1.22;100.00;99590.53;5031903;28;20632;-73
2023/01/16 03:33:26;;;;;;;2.20;2.00;;;;;;;1.22;100.00;99591.34;5032157;28;20260;-73
2023/01/16 03:36:01;;;;;;;1.70;1.60;;;;;;;1.31;100.00;99588.91;5032304;28;20256;-74
2023/01/16 03:38:29;;;;;;;1.80;1.70;;;;;;;1.23;100.00;99579.91;5032252;28;20798;-76
2023/01/16 03:41:00;;;;;;;2.43;2.23;;;;;;;1.24;100.00;99581.56;5031869;28;20283;-74
2023/01/16 03:43:36;;;;;;;1.90;1.80;;;;;;;1.17;100.00;99574.38;5034480;28;20256;-74
2023/01/16 03:46:05;;;;;;;3.23;1.90;;;;;;;1.19;100.00;99568.03;5038861;28;20256;-73
2023/01/16 03:49:07;;;;;;;2.07;1.90;;;;;;;1.28;100.00;99561.16;5037917;28;20252;-72
2023/01/16 03:51:38;;;;;;;2.43;2.20;;;;;;;1.22;100.00;99566.94;5007382;28;20333;-73
2023/01/16 03:54:16;;;;;;;2.47;1.60;;;;;;;1.27;100.00;99558.66;5038367;28;20262;-74
2023/01/16 03:56:59;;;;;;;2.57;2.00;;;;;;;1.22;100.00;99556.44;5036738;28;20284;-75
2023/01/16 03:59:26;;;;;;;2.20;2.00;;;;;;;1.26;100.00;99568.31;5038262;28;20271;-75
2023/01/16 04:02:05;;;;;;;2.40;2.20;;;;;;;1.26;100.00;99568.31;5036664;28;20264;-74
2023/01/16 04:04:43;;;;;;;;;;;;;;;1.31;100.00;99571.38;5036280;28;20599;-72
2023/01/16 04:07:26;;;;;;;2.60;2.40;;;;;;;1.30;100.00;99582.81;5016333;28;19949;-74
2023/01/16 04:10:03;;;;;;;2.50;2.30;;;;;;;1.24;100.00;99572.88;5015771;28;20788;-74
2023/01/16 04:12:40;;;;;;;2.60;2.40;;;;;;;1.30;100.00;99580.19;5015483;28;20304;-73
2023/01/16 04:15:10;;;;;;;2.57;2.37;;;;;;;1.15;100.00;99565.78;4997923;28;20265;-75
2023/01/16 04:17:39;;;;;;;2.40;2.20;;;;;;;1.23;100.00;99579.91;4999008;28;20563;-73
2023/01/16 04:20:07;;;;;;;2.90;2.70;;;;;;;1.29;100.00;99583.78;5015858;28;20368;-74
2023/01/16 04:22:33;;;;;;;2.97;2.77;;;;;;;1.33;100.00;99569.44;5016259;28;20327;-72
2023/01/16 04:25:08;;;;;;;3.50;3.20;;;;;;;1.33;100.00;99574.69;5000733;28;20352;-74
2023/01/16 04:27:34;;;;;;;2.90;2.70;;;;;;;1.36;100.00;99579.66;5016772;28;20030;-71
2023/01/16 04:29:59;;;;;;;6.93;3.27;;;;;;;1.29;100.00;99585.56;5016349;28;20292;-74
2023/01/16 04:32:25;;;;;;;3.60;3.30;;;;;;;1.29;100.00;99575.91;5017000;28;20453;-73
2023/01/16 04:34:56;;;;;;;4.77;3.27;;;;;;;1.28;100.00;99576.88;4981975;28;20037;-76
2023/01/16 04:37:22;;;;;;;3.40;3.00;;;;;;;1.29;100.00;99575.91;4965535;28;20122;-72
2023/01/16 04:39:49;;;;;;;3.70;3.40;;;;;;;1.27;100.00;99575.22;5015915;28;20352;-71
2023/01/16 04:42:15;;;;;;;4.10;3.67;;;;;;;1.27;100.00;99569.97;5018213;28;20100;-73
2023/01/16 04:44:41;;;;;;;4.20;3.77;;;;;;;1.28;100.00;99576.88;5015082;28;20296;-70
2023/01/16 04:47:06;;;;;;;3.30;2.93;;;;;;;1.30;100.00;99568.88;5015803;28;20033;-74
2023/01/16 04:49:32;;;;;;;3.07;2.80;;;;;;;1.39;100.00;99579.41;5015327;28;20037;-74
2023/01/16 04:51:58;;;;;;;4.03;3.33;;;;;;;1.37;100.00;99576.06;5015809;28;20026;-74
2023/01/16 04:54:23;;;;;;;4.13;3.50;;;;;;;1.39;100.00;99584.66;4998599;28;20030;-74
2023/01/16 04:56:49;;;;;;;3.53;3.23;;;;;;;1.37;100.00;99580.50;5016027;28;20026;-74
2023/01/16 04:59:15;;;;;;;3.40;3.10;;;;;;;1.35;100.00;99572.75;5015286;28;20033;-76
2023/01/16 05:01:41;;;;;;;3.30;3.00;;;;;;;1.37;100.00;99570.84;5015162;28;20034;-74
2023/01/16 05:04:08;;;;;;;4.17;3.63;;;;;;;1.37;100.00;99568.22;5015007;28;20736;-75
2023/01/16 05:06:35;;;;;;;3.43;3.13;;;;;;;1.31;100.00;99563.50;5042945;28;20045;-75
2023/01/16 05:09:02;;;;;;;3.43;3.13;;;;;;;1.41;100.00;99579.25;5052897;28;20317;-73
2023/01/16 05:11:28;;;;;;;3.73;3.43;;;;;;;1.27;100.00;99569.16;5052206;28;20324;-75
2023/01/16 05:13:53;;;;;;;5.03;3.63;;;;;;;1.34;100.00;99586.84;5050541;28;20264;-76
2023/01/16 05:16:19;;;;;;;4.10;3.67;;;;;;;1.32;100.00;99577.44;5037994;28;20033;-77
2023/01/16 05:18:44;;;;;;;4.30;3.83;;;;;;;1.33;100.00;99584.34;5035135;28;20026;-75
2023/01/16 05:21:13;;;;;;;3.97;3.55;;;;;;;1.12;100.00;99539.81;5035792;28;20045;-74
2023/01/16 05:23:38;;;;;;;4.13;3.70;;;;;;;1.37;100.00;99577.88;5035931;28;20374;-77
2023/01/16 05:26:05;;;;;;;6.73;4.47;;;;;;;1.34;100.00;99571.09;5039903;28;20102;-76
2023/01/16 05:28:32;;;;;;;4.87;3.60;;;;;;;1.36;100.00;99565.72;5026322;28;20037;-75
2023/01/16 05:30:57;;;;;;;4.63;3.97;;;;;;;1.38;100.00;99575.13;5043133;28;20264;-76
2023/01/16 05:33:23;;;;;;;4.67;4.00;;;;;;;1.36;100.00;99586.69;5025855;28;20279;-72
2023/01/16 05:35:50;;;;;;;4.53;4.13;;;;;;;1.40;100.00;99586.31;5039744;28;20033;-75
2023/01/16 05:38:16;;;;;;;4.20;3.90;;;;;;;1.41;100.00;99577.47;5034014;28;20029;-73
2023/01/16 05:40:44;;;;;;;4.50;4.10;;;;;;;1.41;100.00;99582.72;5035773;28;20314;-76
2023/01/16 05:43:10;;;;;;;4.80;4.30;;;;;;;1.33;100.00;99579.09;5034958;28;20255;-72
2023/01/16 05:45:35;;;;;;;4.03;3.70;;;;;;;1.39;100.00;99579.41;5034287;28;20260;-74
2023/01/16 05:48:01;;;;;;;5.93;4.30;;;;;;;1.40;100.00;99580.22;5033767;28;20496;-76
2023/01/16 05:50:26;;;;;;;4.97;4.13;;;;;;;1.46;100.00;99583.16;5034201;28;20040;-75
2023/01/16 05:52:52;;;;;;;5.70;4.27;;;;;;;1.47;100.00;99597.13;5033855;28;20167;-75
2023/01/16 05:55:20;;;;;;;5.30;4.80;;;;;;;1.43;100.00;99595.69;5033853;28;20349;-77
2023/01/16 05:57:46;;;;;;;4.38;3.97;;;;;;;1.42;100.00;99602.75;5034032;28;20043;-76
2023/01/16 06:00:12;;;;;;;5.07;4.53;;;;;;;1.41;100.00;99593.22;5033340;28;20029;-71
2023/01/16 06:02:38;;;;;;;5.77;4.47;;;;;;;1.43;100.00;99585.19;5015155;28;20550;-73
2023/01/16 06:05:07;;;;;;;5.40;4.20;;;;;;;1.44;100.00;99600.81;5033397;28;20276;-76
2023/01/16 06:07:32;;;;;;;4.93;4.43;;;;;;;1.42;100.00;99587.00;5033482;28;20033;-75
2023/01/16 06:09:58;;;;;;;7.10;5.73;;;;;;;1.41;100.00;99577.47;5033552;28;20264;-76
2023/01/16 06:12:24;;;;;;;15.33;8.83;;;;;;;1.47;100.00;99581.38;5016366;28;20037;-77
2023/01/16 06:14:50;;;;;;;7.80;5.50;;;;;;;1.36;100.00;99573.59;5035403;28;20036;-75
2023/01/16 06:17:16;;;;;;;7.17;5.17;;;;;;;1.49;100.00;99590.78;5035175;28;20288;-75
2023/01/16 06:19:43;;;;;;;7.97;5.27;;;;;;;1.53;100.00;99584.28;5034832;28;20033;-77
2023/01/16 06:22:10;;;;;;;4.00;3.60;;;;;;;1.51;100.00;99583.59;5034735;28;20030;-77
2023/01/16 06:24:35;;;;;;;9.93;6.73;;;;;;;1.50;100.00;99570.63;5033764;28;20059;-75
2023/01/16 06:27:01;;;;;;;7.53;5.27;;;;;;;1.48;100.00;99576.00;5033040;28;20257;-75
2023/01/16 06:29:27;;;;;;;4.13;3.70;;;;;;;1.48;100.00;99583.03;5033265;28;20021;-76
2023/01/16 06:31:52;;;;;;;4.37;3.97;;;;;;;1.43;100.00;99585.19;5015736;28;20061;-77
2023/01/16 06:34:18;;;;;;;5.13;3.93;;;;;;;1.45;100.00;99592.00;5033296;28;20038;-76
2023/01/16 06:36:52;;;;;;;5.17;3.63;;;;;;;1.51;100.00;99598.50;5017550;28;20420;-75
2023/01/16 06:39:33;;;;;;;3.60;3.30;;;;;;;1.31;100.00;99566.13;5036634;28;20554;-75
2023/01/16 06:42:04;;;;;;;4.00;3.60;;;;;;;1.47;100.00;99611.06;5039600;28;20272;-76
2023/01/16 06:44:33;;;;;;;5.60;4.53;;;;;;;1.44;100.00;99600.81;5034074;28;20278;-76
2023/01/16 06:46:59;;;;;;;;;;;;;;;1.57;100.00;99599.75;5043572;28;20311;-75
2023/01/16 06:49:25;;;;;;;4.40;4.00;;;;;;;1.53;100.00;99612.31;5048086;28;19909;-76
2023/01/16 06:56:38;;;;;;;7.77;6.07;;;;;;;1.21;100.00;99560.03;4889460;29;20051;-76
2023/01/16 06:59:06;;;;;;;6.90;4.37;;;;;;;1.53;100.00;99621.03;4898992;29;20292;-78
2023/01/16 07:01:32;;;;;;;4.85;4.22;;;;;;;1.39;100.00;99607.41;4929882;29;20268;-76
2023/01/16 07:03:57;;;;;;;5.60;4.23;;;;;;;1.49;100.00;99613.56;4935189;29;20041;-75
2023/01/16 07:06:24;;;;;;;5.73;3.97;;;;;;;1.59;100.00;99626.69;5009552;28;20052;-75
2023/01/16 07:08:50;;;;;;;4.73;4.00;;;;;;;1.61;100.00;99633.47;5041442;28;20099;-78
2023/01/16 07:11:23;;;;;;;5.03;4.20;;;;;;;1.58;100.00;99638.16;5037261;28;20260;-74
2023/01/16 07:13:49;;;;;;;4.27;3.83;;;;;;;1.63;100.00;99647.28;5018444;28;20264;-76
2023/01/16 07:24:35;;;;;;;4.70;3.83;;;;;;;1.56;100.00;99619.94;5049560;28;20260;-74
2023/01/16 07:27:04;;;;;;;4.23;3.83;;;;;;;1.55;100.00;99628.75;5052831;28;20265;-76
2023/01/16 07:29:31;;;;;;;;;;;;;;;1.63;100.00;99643.84;5053695;28;20267;-75
2023/01/16 07:31:59;;;;;;;5.57;4.20;;;;;;;1.60;100.00;99641.47;5027661;28;19916;-75
2023/01/16 07:34:30;;;;;;;9.45;5.25;;;;;;;1.64;100.00;99635.81;5032920;28;20263;-76
2023/01/16 07:36:59;;;;;;;4.07;3.67;;;;;;;1.65;100.00;99627.00;5032854;28;20065;-76
2023/01/16 07:39:27;;;;;;;7.47;4.67;;;;;;;1.56;100.00;99633.03;5015584;28;20267;-76
2023/01/16 07:41:52;;;;;;;4.53;4.13;;;;;;;1.70;100.00;99655.47;5032551;28;20264;-77
2023/01/16 07:44:20;;;;;;;3.60;3.30;;;;;;;1.66;100.00;99654.06;5032796;28;20022;-76
2023/01/16 07:46:46;;;;;;;4.97;3.80;;;;;;;1.64;100.00;99656.00;5032573;28;20075;-76
2023/01/16 07:49:11;;;;;;;10.07;4.20;;;;;;;1.67;100.00;99655.72;5015986;28;20260;-76
2023/01/16 07:51:38;;;;;;;4.80;4.07;;;;;;;1.51;100.00;99630.00;5048014;28;20033;-76
2023/01/16 07:54:04;;;;;;;7.07;4.50;;;;;;;1.69;100.00;99646.75;5039210;28;20037;-76
2023/01/16 07:56:29;;;;;;;4.37;3.73;;;;;;;1.71;100.00;99655.31;5016059;28;20268;-75
2023/01/16 07:58:58;;;;;;;4.73;3.77;;;;;;;1.67;100.00;99639.97;5032739;28;20115;-76
2023/01/16 08:01:26;;;;;;;5.53;3.97;;;;;;;1.76;100.00;99661.03;5032533;28;20038;-77
2023/01/16 08:03:52;;;;;;;9.35;5.50;;;;;;;1.79;100.00;99649.44;5032606;28;20095;-76
2023/01/16 08:06:20;;;;;;;6.67;3.47;;;;;;;1.82;100.00;99659.66;5032277;28;20513;-75
2023/01/16 08:08:47;;;;;;;5.07;3.40;;;;;;;1.79;100.00;99666.00;5032149;28;20475;-76
2023/01/16 08:13:59;;;;;;;6.43;4.20;;;;;;;1.90;100.00;99656.34;5015868;28;20597;-76
2023/01/16 08:16:25;;;;;;;6.20;4.10;;;;;;;1.80;100.00;99635.34;5032751;28;20315;-75
2023/01/16 08:18:53;;;;;;;3.87;3.57;;;;;;;1.85;100.00;99648.88;5015171;28;20025;-75
2023/01/16 08:21:19;;;;;;;6.38;3.55;;;;;;;1.76;100.00;99637.41;5033152;28;20060;-76
2023/01/16 08:23:44;;;;;;;4.33;3.70;;;;;;;1.79;100.00;99654.69;5048248;28;20034;-75
2023/01/16 08:26:13;;;;;;;6.82;5.00;;;;;;;1.78;100.00;99653.03;5041858;28;20033;-75
2023/01/16 08:28:39;;;;;;;5.17;3.83;;;;;;;1.77;100.00;99656.63;5015381;28;20029;-77
2023/01/16 08:31:12;;;;;;;5.87;3.63;;;;;;;1.77;100.00;99654.81;5035160;28;20385;-77
2023/01/16 08:33:43;;;;;;;6.23;4.10;;;;;;;1.70;100.00;99650.22;5022807;28;20377;-76
2023/01/16 08:36:10;;;;;;;14.70;7.03;;;;;;;1.38;100.00;99603.97;5018083;28;20269;-77
2023/01/16 08:38:36;;;;;;;5.43;3.83;;;;;;;1.61;100.00;99651.00;5036637;28;20284;-77
2023/01/16 08:41:01;;;;;;;6.37;4.40;;;;;;;1.61;100.00;99656.25;5019954;28;20272;-77
2023/01/16 08:54:30;;;;;;;4.47;4.07;;;;;;;1.67;100.00;99645.22;5044094;28;20279;-76
2023/01/16 09:09:12;;;;;;;5.40;4.30;;;;;;;1.72;100.00;99629.91;5021926;28;20385;-77
2023/01/16 09:26:54;;;;;;;8.00;5.10;;;;;;;1.55;100.00;99595.47;4968124;28;20373;-75
2023/01/16 09:33:21;;;;;;;4.87;3.50;;;;;;;1.76;100.00;99631.31;5015742;28;20268;-76
2023/01/16 09:43:50;;;;;;;5.13;4.60;;;;;;;1.83;100.00;99635.06;5016451;28;20261;-76
2023/01/16 09:47:16;;;;;;;6.10;4.30;;;;;;;1.58;100.00;99583.06;5000653;28;20987;-75
2023/01/16 09:50:42;;;;;;;4.40;3.53;;;;;;;1.89;100.00;99628.44;4947395;29;20319;-75
2023/01/16 10:04:27;;;;;;;4.77;3.73;;;;;;;1.91;100.00;99598.47;4888318;29;20280;-76
2023/01/16 10:07:20;;;;;;;6.35;4.63;;;;;;;2.07;100.00;99625.03;4875103;29;20352;-76
2023/01/16 10:10:23;;;;;;;4.10;3.70;;;;;;;2.12;100.00;99629.88;4928202;29;20043;-76
2023/01/16 10:13:13;;;;;;;4.57;3.50;;;;;;;2.08;100.00;99617.97;4944371;28;20399;-76
2023/01/16 10:16:15;;;;;;;3.63;2.63;;;;;;;2.05;100.00;99619.09;4972438;28;20794;-75
2023/01/16 10:19:25;;;;;;;4.03;3.43;;;;;;;2.06;100.00;99620.75;4973641;28;20286;-75
2023/01/16 10:22:28;;;;;;;4.53;3.03;;;;;;;2.07;100.00;99627.66;4918083;29;20268;-76
2023/01/16 10:24:54;;;;;;;12.33;4.47;;;;;;;2.08;100.00;99636.38;4978222;28;20268;-76
2023/01/16 10:27:46;;;;;;;5.03;3.27;;;;;;;2.05;100.00;99634.84;5033558;28;20282;-76
2023/01/16 10:30:31;;;;;;;3.23;2.93;;;;;;;2.01;100.00;99630.81;5021327;28;20248;-75
2023/01/16 10:33:15;;;;;;;4.17;2.83;;;;;;;2.06;100.00;99633.06;5036521;28;20278;-73
2023/01/16 10:35:45;;;;;;;6.43;3.73;;;;;;;2.04;100.00;99635.81;5052981;28;20252;-74
2023/01/16 10:39:21;;;;;;;3.77;3.00;;;;;;;1.99;100.00;99622.22;5056490;28;20284;-74
2023/01/16 10:50:51;;;;;;;4.73;3.93;;;;;;;2.18;100.00;99624.91;5035158;28;20276;-75
2023/01/16 10:53:17;;;;;;;3.53;2.60;;;;;;;2.24;100.00;99638.44;5016165;28;20671;-76
2023/01/16 10:55:48;;;;;;;5.90;3.17;;;;;;;1.91;100.00;99587.13;5034229;28;20029;-74
2023/01/16 10:58:29;;;;;;;3.53;2.83;;;;;;;2.18;100.00;99619.66;5009077;28;20386;-74
2023/01/16 11:01:05;;;;;;;6.67;4.17;;;;;;;2.13;100.00;99624.47;5035221;28;20256;-76
2023/01/16 11:03:41;;;;;;;5.33;3.63;;;;;;;2.13;100.00;99640.25;5034175;28;20363;-76
2023/01/16 11:06:26;;;;;;;3.20;2.90;;;;;;;2.13;100.00;99637.63;5033567;28;20256;-77
2023/01/16 11:09:21;;;;;;;4.30;3.20;;;;;;;2.11;100.00;99629.03;5019159;28;20310;-76
2023/01/16 11:20:28;;;;;;;5.13;3.53;;;;;;;2.09;100.00;99651.16;5044539;28;20265;-75
2023/01/16 11:23:03;;;;;;;3.77;3.23;;;;;;;2.08;100.00;99652.97;5044337;28;20647;-75
2023/01/16 11:25:31;;;;;;;7.57;4.30;;;;;;;2.13;100.00;99645.50;5015931;28;20621;-76
2023/01/16 11:28:02;;;;;;;4.40;3.67;;;;;;;2.11;100.00;99657.94;5032548;28;20732;-75
2023/01/16 11:30:32;;;;;;;5.13;3.97;;;;;;;2.10;100.00;99645.78;5032098;28;20688;-77
2023/01/16 11:32:58;;;;;;;3.83;3.33;;;;;;;2.12;100.00;99651.72;5036134;28;20264;-76
2023/01/16 11:36:00;;;;;;;4.43;3.43;;;;;;;2.12;100.00;99641.22;5040407;28;20321;-73
2023/01/16 11:38:45;;;;;;;5.57;3.90;;;;;;;2.12;100.00;99649.09;5046011;28;20033;-74
2023/01/16 11:41:42;;;;;;;6.33;3.77;;;;;;;2.11;100.00;99652.69;5041932;28;20344;-77
2023/01/16 11:47:40;;;;;;;10.23;4.43;;;;;;;2.15;100.00;99661.94;5032223;28;20267;-77
2023/01/16 11:50:21;;;;;;;3.53;3.23;;;;;;;2.13;100.00;99658.63;5031995;28;20259;-77
2023/01/16 11:52:47;;;;;;;4.03;3.63;;;;;;;2.05;100.00;99655.84;5014115;28;20260;-77
2023/01/16 11:55:15;;;;;;;5.90;3.60;;;;;;;2.07;100.00;99659.19;5032485;28;20597;-77
2023/01/16 11:57:59;;;;;;;6.33;3.90;;;;;;;2.10;100.00;99663.31;5031891;28;20288;-76
2023/01/16 12:00:39;;;;;;;6.30;4.37;;;;;;;2.14;100.00;99668.16;5032297;28;20314;-77
2023/01/16 12:03:49;;;;;;;4.53;4.07;;;;;;;2.21;100.00;99671.06;5031553;28;20257;-76
2023/01/16 12:06:33;;;;;;;5.17;3.90;;;;;;;2.22;100.00;99677.16;5035373;28;21331;-76
2023/01/16 12:09:29;;;;;;;;;;;;;;;2.18;100.00;99677.44;5022030;28;20291;-76
2023/01/16 12:15:31;;;;;;;4.53;3.40;;;;;;;2.13;100.00;99679.63;4955089;29;20391;-76
2023/01/16 12:18:46;;;;;;;4.30;3.60;;;;;;;2.12;100.00;99680.59;5035065;28;20426;-78
2023/01/16 12:21:33;;;;;;;3.97;3.47;;;;;;;2.07;100.00;99689.88;4999643;28;20272;-76
2023/01/16 12:24:18;;;;;;;7.17;4.30;;;;;;;2.04;100.00;99685.72;5044030;28;20259;-74
2023/01/16 12:27:24;;;;;;;7.10;5.00;;;;;;;2.04;100.00;99698.84;5041244;28;20260;-73
2023/01/16 12:30:18;;;;;;;5.83;4.17;;;;;;;2.04;100.00;99688.34;5038316;28;20806;-75
2023/01/16 12:33:13;;;;;;;4.93;4.10;;;;;;;2.06;100.00;99682.94;5021722;28;20260;-74
2023/01/16 12:35:50;;;;;;;5.63;3.77;;;;;;;2.05;100.00;99671.63;5047058;28;20272;-72
2023/01/16 12:38:36;;;;;;;5.00;4.50;;;;;;;2.08;100.00;99673.97;5029378;28;20291;-73
2023/01/16 12:44:56;;;;;;;5.70;4.53;;;;;;;2.14;100.00;99686.56;5038838;28;20273;-73
2023/01/16 12:47:48;;;;;;;8.73;5.40;;;;;;;2.15;100.00;99688.22;4996910;28;20264;-74
2023/01/16 12:50:30;;;;;;;7.67;4.67;;;;;;;2.12;100.00;99679.78;5023085;28;20280;-76
2023/01/16 12:53:20;;;;;;;7.37;4.93;;;;;;;2.16;100.00;99694.28;5045544;28;20347;-75
2023/01/16 12:56:35;;;;;;;6.30;4.47;;;;;;;2.15;100.00;99688.22;5044520;28;20324;-75
2023/01/16 12:59:15;;;;;;;8.97;5.70;;;;;;;2.20;100.00;99697.47;5037024;28;20399;-78
2023/01/16 13:05:47;;;;;;;5.10;4.40;;;;;;;1.96;100.00;99647.94;4945499;29;20298;-72
2023/01/16 13:15:44;;;;;;;17.23;7.37;;;;;;;2.16;100.00;99692.50;4846841;29;20285;-76
2023/01/16 13:18:39;;;;;;;7.07;4.57;;;;;;;2.25;100.00;99698.72;4914906;29;20291;-75
2023/01/16 13:21:39;;;;;;;6.88;4.65;;;;;;;2.27;100.00;99690.72;4996818;28;20033;-76
2023/01/16 13:24:45;;;;;;;6.73;4.27;;;;;;;2.26;100.00;99694.31;4935510;29;20027;-77
2023/01/16 13:28:16;;;;;;;;;;;;;;;;;;;;;
2023/01/16 13:35:56;;;;;;;5.00;4.50;;;;;;;2.23;100.00;99715.59;4954919;29;20352;-81
2023/01/16 13:39:05;;;;;;;7.22;4.95;;;;;;;2.20;100.00;99721.13;4952996;29;20298;-76
2023/01/16 13:41:43;;;;;;;5.80;5.20;;;;;;;1.95;100.00;99690.91;4954172;29;20503;-69
2023/01/16 13:47:14;;;;;;;8.63;4.00;;;;;;;2.10;100.00;99700.09;4960157;29;20603;-74
2023/01/16 13:49:40;;;;;;;6.17;4.73;;;;;;;2.13;100.00;99705.91;4962233;29;20270;-74
2023/01/16 13:52:19;;;;;;;8.33;4.87;;;;;;;2.17;100.00;99699.41;4964219;29;20266;-75
2023/01/16 13:54:50;;;;;;;10.52;6.35;;;;;;;2.13;100.00;99699.81;4959102;28;20037;-75
2023/01/16 13:57:19;;;;;;;6.57;4.93;;;;;;;2.13;100.00;99719.03;4998744;28;20029;-76
2023/01/16 13:59:47;;;;;;;5.50;3.90;;;;;;;2.19;100.00;99720.28;5004520;28;20261;-75
2023/01/16 14:02:39;;;;;;;4.30;3.60;;;;;;;2.20;100.00;99721.94;5025033;28;20277;-73
2023/01/16 14:05:04;;;;;;;6.30;4.13;;;;;;;2.18;100.00;99724.72;5026200;28;20253;-75
2023/01/16 14:10:57;;;;;;;6.83;4.30;;;;;;;2.24;100.00;99731.22;5033657;28;20036;-77
2023/01/16 14:13:41;;;;;;;7.10;4.00;;;;;;;2.10;100.00;99721.94;5033417;28;20261;-74
2023/01/16 14:16:32;;;;;;;5.00;4.07;;;;;;;2.17;100.00;99737.97;5033222;28;20264;-75
2023/01/16 14:19:00;;;;;;;4.37;3.93;;;;;;;2.14;100.00;99738.25;5033104;28;20288;-74
2023/01/16 14:21:29;;;;;;;5.87;3.93;;;;;;;2.11;100.00;99734.09;5038469;28;20268;-73